Time;durP1;ratioP1;P1;durP2;ratioP2;P2;SDS_P1;SDS_P2;PMS_P1;PMS_P2;Temp;Humidity;BMP_temperature;BMP_pressure;BME280_temperature;BME280_humidity;BME280_pressure;Samples;Min_cycle;Max_cycle;Signal;HPM_P1;HPM_P2
2021/06/27 00:00:40;;;;;;;11.35;10.25;;;24.70;62.10;;;;;;4952551;28;88215;-24
2021/06/27 00:03:07;;;;;;;;;;;24.70;62.00;;;;;;4953325;28;89014;-24
2021/06/27 00:05:33;;;;;;;12.00;10.90;;;24.70;62.10;;;;;;4954980;28;87159;-24
2021/06/27 00:07:59;;;;;;;11.93;10.73;;;24.70;62.00;;;;;;4953154;28;86999;-32
2021/06/27 00:10:36;;;;;;;12.20;11.10;;;24.70;62.00;;;;;;4952624;28;88302;-24
2021/06/27 00:13:03;;;;;;;11.50;10.40;;;24.70;62.00;;;;;;4952418;28;87668;-25
2021/06/27 00:15:40;;;;;;;12.13;10.95;;;24.70;62.00;;;;;;4952579;28;88413;-24
2021/06/27 00:18:08;;;;;;;11.82;10.73;;;24.70;62.00;;;;;;4952822;28;87852;-24
2021/06/27 00:20:36;;;;;;;11.15;10.13;;;24.70;62.10;;;;;;4953084;28;87756;-24
2021/06/27 00:23:02;;;;;;;12.77;11.38;;;24.70;62.10;;;;;;4951898;28;88128;-25
2021/06/27 00:25:30;;;;;;;11.73;10.60;;;24.70;62.00;;;;;;4952626;28;88084;-30
2021/06/27 00:27:56;;;;;;;11.70;10.60;;;24.70;62.00;;;;;;4952217;28;89954;-32
2021/06/27 00:30:23;;;;;;;11.90;10.80;;;24.70;62.00;;;;;;4952485;28;88317;-26
2021/06/27 00:32:50;;;;;;;12.25;11.15;;;24.70;62.00;;;;;;4952753;28;86979;-29
2021/06/27 00:35:17;;;;;;;12.55;11.45;;;24.70;61.90;;;;;;4952785;28;87882;-33
2021/06/27 00:37:43;;;;;;;12.27;11.07;;;24.70;62.00;;;;;;4952186;28;87407;-30
2021/06/27 00:40:12;;;;;;;11.48;10.38;;;24.70;62.00;;;;;;4951440;28;89164;-25
2021/06/27 00:42:39;;;;;;;11.88;10.75;;;24.70;62.00;;;;;;4952107;28;88404;-23
2021/06/27 00:45:07;;;;;;;11.63;10.63;;;24.70;62.00;;;;;;4952667;28;88451;-32
2021/06/27 00:47:35;;;;;;;11.52;10.52;;;24.70;62.00;;;;;;4952438;28;87907;-26
2021/06/27 00:50:02;;;;;;;12.32;11.18;;;24.70;62.00;;;;;;4952133;28;87988;-24
2021/06/27 00:52:28;;;;;;;12.35;11.05;;;24.70;62.00;;;;;;4951356;28;89264;-25
2021/06/27 00:54:53;;;;;;;11.52;10.43;;;24.60;62.00;;;;;;4950935;28;88072;-30
2021/06/27 00:57:20;;;;;;;12.38;11.18;;;24.60;62.00;;;;;;4951863;28;87810;-26
2021/06/27 00:59:46;;;;;;;11.90;10.80;;;24.70;62.00;;;;;;4952375;28;88241;-24
2021/06/27 01:02:12;;;;;;;11.50;10.40;;;24.70;62.00;;;;;;4952470;28;87101;-24
2021/06/27 01:04:38;;;;;;;12.05;10.95;;;24.60;62.00;;;;;;4951213;28;88086;-24
2021/06/27 01:07:05;;;;;;;11.88;10.73;;;24.70;62.00;;;;;;4951924;28;87447;-24
2021/06/27 01:09:31;;;;;;;11.75;10.65;;;24.70;62.00;;;;;;4952356;28;88576;-24
2021/06/27 01:11:58;;;;;;;11.68;10.55;;;24.60;61.90;;;;;;4952429;28;87896;-24
2021/06/27 01:14:23;;;;;;;12.10;11.00;;;24.60;62.00;;;;;;4952211;28;87956;-24
2021/06/27 01:16:49;;;;;;;11.40;10.30;;;24.60;61.90;;;;;;4952304;28;87774;-24
2021/06/27 01:19:14;;;;;;;12.13;10.93;;;24.60;62.00;;;;;;4951424;28;88323;-24
2021/06/27 01:21:43;;;;;;;11.48;10.45;;;;;;;;;;4951744;28;87849;-25
2021/06/27 01:24:09;;;;;;;12.25;11.10;;;24.60;61.50;;;;;;4951679;28;88234;-24
2021/06/27 01:26:35;;;;;;;11.10;10.10;;;24.60;62.00;;;;;;4951185;28;89101;-24
2021/06/27 01:29:01;;;;;;;11.75;10.65;;;24.60;62.00;;;;;;4951269;28;88467;-26
2021/06/27 01:31:27;;;;;;;12.30;11.20;;;24.60;62.00;;;;;;4952049;28;88815;-24
2021/06/27 01:33:54;;;;;;;11.88;10.77;;;24.60;62.00;;;;;;4951249;28;87820;-30
2021/06/27 01:36:21;;;;;;;11.32;10.32;;;24.60;62.60;;;;;;4951409;28;87820;-26
2021/06/27 01:38:50;;;;;;;11.32;10.27;;;24.60;62.00;;;;;;4951249;28;88636;-24
2021/06/27 01:41:19;;;;;;;11.27;10.27;;;24.60;62.00;;;;;;4950936;28;87931;-24
2021/06/27 01:43:44;;;;;;;11.50;10.40;;;24.60;62.00;;;;;;4952036;28;87959;-24
2021/06/27 01:46:10;;;;;;;12.05;10.93;;;24.60;62.00;;;;;;4951879;28;87316;-28
2021/06/27 01:48:36;;;;;;;12.02;10.93;;;24.60;62.00;;;;;;4950825;28;88571;-26
2021/06/27 01:51:09;;;;;;;12.05;10.95;;;24.60;61.90;;;;;;4948969;28;90431;-25
2021/06/27 01:53:37;;;;;;;12.17;11.00;;;24.60;62.00;;;;;;4950914;28;88226;-25
2021/06/27 01:56:07;;;;;;;11.85;10.70;;;24.60;62.00;;;;;;4950327;28;89349;-24
2021/06/27 01:58:51;;;;;;;11.32;10.32;;;24.60;62.00;;;;;;4951032;28;87811;-28
2021/06/27 02:01:22;;;;;;;11.27;10.27;;;24.60;62.00;;;;;;4949549;28;89279;-31
2021/06/27 02:03:50;;;;;;;11.00;10.02;;;24.60;62.00;;;;;;4949985;28;87447;-31
2021/06/27 02:06:17;;;;;;;11.77;10.68;;;24.60;62.00;;;;;;4950093;28;87898;-27
2021/06/27 02:08:44;;;;;;;11.20;10.20;;;24.60;62.00;;;;;;4951039;28;88187;-24
2021/06/27 02:11:12;;;;;;;11.32;10.23;;;24.60;61.90;;;;;;4951435;28;87349;-26
2021/06/27 02:13:38;;;;;;;11.18;10.18;;;24.60;62.00;;;;;;4951423;28;88102;-25
2021/06/27 02:16:05;;;;;;;10.88;9.85;;;24.60;62.00;;;;;;4951143;28;87559;-23
2021/06/27 02:18:32;;;;;;;11.75;10.65;;;24.60;62.00;;;;;;4950828;28;89111;-24
2021/06/27 02:21:03;;;;;;;11.15;10.15;;;24.60;62.00;;;;;;4950691;28;88924;-24
2021/06/27 02:23:29;;;;;;;11.13;10.13;;;24.60;62.50;;;;;;4950351;28;88081;-26
2021/06/27 02:25:56;;;;;;;11.07;10.07;;;24.60;62.00;;;;;;4950212;28;87988;-27
2021/06/27 02:28:22;;;;;;;11.00;10.00;;;24.50;61.90;;;;;;4950690;28;88158;-25
2021/06/27 02:30:54;;;;;;;10.70;9.80;;;24.50;61.90;;;;;;4950606;28;88289;-26
2021/06/27 02:33:20;;;;;;;12.07;10.90;;;24.50;61.90;;;;;;4951184;28;88082;-25
2021/06/27 02:35:46;;;;;;;11.88;10.77;;;24.50;61.90;;;;;;4950195;28;87460;-25
2021/06/27 02:38:13;;;;;;;11.25;10.27;;;24.50;61.90;;;;;;4950133;28;87467;-27
2021/06/27 02:40:42;;;;;;;10.43;9.43;;;24.50;62.00;;;;;;4950500;28;87204;-26
2021/06/27 02:43:07;;;;;;;11.18;10.07;;;24.50;61.90;;;;;;4950616;28;89047;-26
2021/06/27 02:45:33;;;;;;;11.05;10.07;;;24.50;61.90;;;;;;4950940;28;88167;-25
2021/06/27 02:47:59;;;;;;;11.32;10.23;;;24.50;61.90;;;;;;4949959;28;87570;-26
2021/06/27 02:50:25;;;;;;;10.90;9.90;;;24.50;62.00;;;;;;4949080;28;88175;-25
2021/06/27 02:52:51;;;;;;;10.50;9.50;;;24.50;62.00;;;;;;4950951;28;87973;-29
2021/06/27 02:55:16;;;;;;;10.43;9.52;;;24.50;62.00;;;;;;4951439;28;88604;-24
2021/06/27 02:57:43;;;;;;;10.57;9.65;;;24.50;62.00;;;;;;4951246;28;88287;-28
2021/06/27 03:00:15;;;;;;;11.27;10.27;;;24.50;62.00;;;;;;4951465;28;87372;-24
2021/06/27 03:02:41;;;;;;;10.40;9.50;;;24.50;62.00;;;;;;4950641;28;87465;-24
2021/06/27 03:05:08;;;;;;;11.10;10.10;;;24.50;62.00;;;;;;4950246;28;87571;-26
2021/06/27 03:07:34;;;;;;;10.90;9.90;;;24.50;61.90;;;;;;4948879;28;90266;-29
2021/06/27 03:10:00;;;;;;;11.35;10.35;;;24.50;61.90;;;;;;4948875;28;92139;-25
2021/06/27 03:12:25;;;;;;;11.30;10.32;;;24.50;62.00;;;;;;4950523;28;87337;-25
2021/06/27 03:14:51;;;;;;;10.40;9.48;;;24.50;62.00;;;;;;4950348;28;87652;-25
2021/06/27 03:17:16;;;;;;;11.77;10.68;;;24.50;62.00;;;;;;4950976;28;87937;-24
2021/06/27 03:19:44;;;;;;;11.05;10.05;;;24.50;62.10;;;;;;4949588;28;88160;-25
2021/06/27 03:22:10;;;;;;;10.13;9.23;;;24.50;62.60;;;;;;4949242;28;88052;-28
2021/06/27 03:24:36;;;;;;;11.32;10.32;;;24.50;62.00;;;;;;4950514;28;87121;-25
2021/06/27 03:27:01;;;;;;;11.32;10.32;;;24.50;62.00;;;;;;4949697;28;88018;-25
2021/06/27 03:29:27;;;;;;;10.75;9.85;;;24.40;61.90;;;;;;4948998;28;87992;-28
2021/06/27 03:31:53;;;;;;;11.50;10.50;;;24.50;62.00;;;;;;4948925;28;88928;-30
2021/06/27 03:34:18;;;;;;;10.57;9.68;;;24.50;62.00;;;;;;4949707;28;87268;-27
2021/06/27 03:36:44;;;;;;;11.10;10.10;;;24.40;62.00;;;;;;4950017;28;89489;-27
2021/06/27 03:39:12;;;;;;;11.05;10.05;;;24.50;62.10;;;;;;4948070;28;91171;-25
2021/06/27 03:41:44;;;;;;;10.38;9.38;;;24.50;62.00;;;;;;4950015;28;88104;-25
2021/06/27 03:44:10;;;;;;;11.45;10.40;;;24.40;62.00;;;;;;4949895;28;88135;-28
2021/06/27 03:46:35;;;;;;;10.77;9.82;;;24.50;62.60;;;;;;4949490;28;87990;-24
2021/06/27 03:49:01;;;;;;;11.35;10.35;;;24.50;62.00;;;;;;4950415;28;87818;-24
2021/06/27 03:51:27;;;;;;;10.30;9.40;;;24.40;62.00;;;;;;4950021;28;87819;-27
2021/06/27 03:53:53;;;;;;;10.32;9.43;;;24.40;62.00;;;;;;4948965;28;88414;-24
2021/06/27 03:56:19;;;;;;;11.13;10.02;;;24.40;62.00;;;;;;4950259;28;88896;-25
2021/06/27 03:58:46;;;;;;;10.38;9.48;;;24.40;62.10;;;;;;4950605;28;88402;-24
2021/06/27 04:01:12;;;;;;;11.18;10.18;;;24.40;61.90;;;;;;4952781;28;87842;-27
2021/06/27 04:03:38;;;;;;;11.23;10.20;;;24.50;62.00;;;;;;4952925;28;88364;-25
2021/06/27 04:06:04;;;;;;;10.70;9.80;;;24.40;61.90;;;;;;4953574;28;88647;-24
2021/06/27 04:08:31;;;;;;;11.75;10.73;;;24.50;62.00;;;;;;4953195;28;87053;-24
2021/06/27 04:10:57;;;;;;;10.77;9.73;;;24.50;62.00;;;;;;4952642;28;87481;-28
2021/06/27 04:13:27;;;;;;;10.95;9.95;;;24.40;61.90;;;;;;4954504;28;87235;-23
2021/06/27 04:15:53;;;;;;;10.48;9.48;;;24.40;61.90;;;;;;4953960;28;88019;-24
2021/06/27 04:18:20;;;;;;;10.75;9.75;;;24.40;62.50;;;;;;4953582;28;87894;-29
2021/06/27 04:20:46;;;;;;;10.48;9.57;;;24.40;62.00;;;;;;4953166;28;88098;-27
2021/06/27 04:23:11;;;;;;;11.80;10.68;;;24.40;62.00;;;;;;4951928;28;88176;-23
2021/06/27 04:25:37;;;;;;;11.60;10.60;;;24.40;62.00;;;;;;4952522;28;87669;-25
2021/06/27 04:28:04;;;;;;;10.65;9.75;;;24.40;62.00;;;;;;4952587;28;87873;-30
2021/06/27 04:30:30;;;;;;;11.07;10.07;;;24.40;62.00;;;;;;4952786;28;87810;-23
2021/06/27 04:32:56;;;;;;;9.68;8.77;;;24.40;62.00;;;;;;4952309;28;88079;-31
2021/06/27 04:35:21;;;;;;;10.75;9.75;;;24.40;62.00;;;;;;4952163;28;89124;-22
2021/06/27 04:37:47;;;;;;;10.38;9.48;;;24.50;62.00;;;;;;4952943;28;89652;-23
2021/06/27 04:40:13;;;;;;;10.60;9.60;;;24.50;61.90;;;;;;4953263;28;87653;-25
2021/06/27 04:42:38;;;;;;;10.60;9.60;;;24.50;61.80;;;;;;4953114;28;88083;-26
2021/06/27 04:45:05;;;;;;;10.38;9.48;;;24.50;61.70;;;;;;4952175;28;88552;-31
2021/06/27 04:47:31;;;;;;;10.43;9.52;;;24.50;61.70;;;;;;4952713;28;90046;-22
2021/06/27 04:49:56;;;;;;;10.23;9.32;;;24.50;61.70;;;;;;4952984;28;87001;-24
2021/06/27 04:52:22;;;;;;;10.65;9.65;;;24.50;61.60;;;;;;4953329;28;87683;-23
2021/06/27 04:54:49;;;;;;;10.25;9.35;;;24.60;61.70;;;;;;4951284;28;88352;-23
2021/06/27 04:57:15;;;;;;;10.00;9.10;;;24.50;61.70;;;;;;4950800;28;92000;-32
2021/06/27 04:59:40;;;;;;;10.15;9.25;;;24.60;61.70;;;;;;4951535;28;88124;-21
2021/06/27 05:02:06;;;;;;;9.85;8.95;;;24.50;61.70;;;;;;4951442;28;87620;-22
2021/06/27 05:04:32;;;;;;;10.40;9.45;;;24.60;61.70;;;;;;4951329;28;89349;-23
2021/06/27 05:06:57;;;;;;;10.30;9.40;;;24.50;61.60;;;;;;4951948;28;87531;-22
2021/06/27 05:09:23;;;;;;;10.43;9.48;;;24.60;61.70;;;;;;4952162;28;89121;-33
2021/06/27 05:11:48;;;;;;;10.30;9.40;;;24.60;61.60;;;;;;4953001;28;87788;-27
2021/06/27 05:14:14;;;;;;;10.10;9.15;;;24.60;61.60;;;;;;4951253;28;89062;-34
2021/06/27 05:16:40;;;;;;;10.55;9.55;;;24.60;61.50;;;;;;4952628;28;87335;-22
2021/06/27 05:19:05;;;;;;;9.95;9.00;;;24.70;61.40;;;;;;4952233;28;88093;-22
2021/06/27 05:21:34;;;;;;;9.75;8.85;;;24.70;61.30;;;;;;4951127;28;88438;-28
2021/06/27 05:24:00;;;;;;;10.25;9.32;;;24.80;61.30;;;;;;4952130;28;87801;-29
2021/06/27 05:26:26;;;;;;;10.43;9.43;;;24.80;61.30;;;;;;4950807;28;89457;-26
2021/06/27 05:28:52;;;;;;;9.80;8.90;;;24.80;61.40;;;;;;4952586;28;87810;-28
2021/06/27 05:31:17;;;;;;;10.75;9.75;;;24.70;61.60;;;;;;4952207;28;88193;-25
2021/06/27 05:33:43;;;;;;;10.27;9.35;;;24.80;61.50;;;;;;4951443;28;89017;-25
2021/06/27 05:36:09;;;;;;;9.55;8.65;;;24.80;61.50;;;;;;4951765;28;88251;-24
2021/06/27 05:38:34;;;;;;;9.73;8.82;;;24.80;61.50;;;;;;4952088;28;88074;-24
2021/06/27 05:41:00;;;;;;;10.20;9.27;;;24.80;61.50;;;;;;4950740;28;87911;-30
2021/06/27 05:43:25;;;;;;;10.73;9.63;;;24.80;61.30;;;;;;4952390;28;88329;-24
2021/06/27 05:45:54;;;;;;;10.70;9.60;;;24.90;61.30;;;;;;4952323;28;88127;-24
2021/06/27 05:48:19;;;;;;;13.05;10.38;;;24.90;61.10;;;;;;4951290;28;88348;-24
2021/06/27 05:50:45;;;;;;;11.77;10.57;;;24.90;60.90;;;;;;4951037;28;87094;-24
2021/06/27 05:53:11;;;;;;;13.32;9.43;;;24.90;60.80;;;;;;4950396;28;88553;-25
2021/06/27 05:55:36;;;;;;;15.05;10.38;;;24.80;60.70;;;;;;4951853;28;87888;-25
2021/06/27 05:58:02;;;;;;;12.98;11.15;;;24.80;60.60;;;;;;4950391;28;88442;-25
2021/06/27 06:00:28;;;;;;;12.68;10.65;;;;;;;;;;4949965;28;87563;-25
2021/06/27 06:02:54;;;;;;;13.18;10.90;;;;;;;;;;4949509;28;88283;-28
2021/06/27 06:05:20;;;;;;;13.90;10.43;;;24.70;59.80;;;;;;4949928;28;88481;-24
2021/06/27 06:07:46;;;;;;;13.38;10.60;;;25.60;62.30;;;;;;4949756;28;87728;-24
2021/06/27 06:10:12;;;;;;;13.07;11.23;;;24.60;60.10;;;;;;4951155;28;88735;-24
2021/06/27 06:12:37;;;;;;;15.50;11.15;;;24.70;60.20;;;;;;4950350;28;87488;-25
2021/06/27 06:15:04;;;;;;;11.73;9.93;;;24.70;60.10;;;;;;4951511;28;87882;-24
2021/06/27 06:17:29;;;;;;;11.90;10.70;;;24.70;60.00;;;;;;4950437;28;87116;-25
2021/06/27 06:19:55;;;;;;;12.85;9.95;;;24.70;60.10;;;;;;4950536;28;88032;-26
2021/06/27 06:22:21;;;;;;;10.75;9.73;;;24.60;60.00;;;;;;4949779;28;88762;-24
2021/06/27 06:24:48;;;;;;;11.65;10.45;;;24.70;59.90;;;;;;4950407;28;88731;-26
2021/06/27 06:27:13;;;;;;;12.90;9.63;;;24.70;59.80;;;;;;4950779;28;88389;-30
2021/06/27 06:29:39;;;;;;;11.38;10.18;;;24.80;59.70;;;;;;4950414;28;87482;-27
2021/06/27 06:32:05;;;;;;;10.82;9.77;;;24.80;59.50;;;;;;4949811;28;88493;-31
2021/06/27 06:34:31;;;;;;;11.68;9.63;;;24.80;59.50;;;;;;4950615;28;87923;-24
2021/06/27 06:36:57;;;;;;;12.20;9.45;;;24.80;59.50;;;;;;4950269;28;87329;-25
2021/06/27 06:39:22;;;;;;;11.18;9.98;;;24.80;59.50;;;;;;4950985;28;87470;-24
2021/06/27 06:41:52;;;;;;;11.73;9.90;;;24.80;59.60;;;;;;4947746;28;88344;-25
2021/06/27 06:44:18;;;;;;;11.05;9.40;;;24.80;59.70;;;;;;4950446;28;88232;-24
2021/06/27 06:46:43;;;;;;;16.30;10.48;;;24.80;59.80;;;;;;4950595;28;89250;-25
2021/06/27 06:49:09;;;;;;;33.00;12.70;;;24.90;59.90;;;;;;4949499;28;88638;-27
2021/06/27 06:51:35;;;;;;;30.33;13.43;;;24.80;60.00;;;;;;4949469;28;88199;-24
2021/06/27 06:54:00;;;;;;;32.55;13.50;;;24.80;60.10;;;;;;4949707;28;88439;-25
2021/06/27 06:56:26;;;;;;;34.00;14.23;;;24.80;63.10;;;;;;4950474;28;88283;-26
2021/06/27 06:58:54;;;;;;;26.80;13.98;;;24.80;60.30;;;;;;4950187;28;88191;-24
2021/06/27 07:01:19;;;;;;;32.28;15.00;;;24.80;60.40;;;;;;4949143;28;88744;-24
2021/06/27 07:03:45;;;;;;;36.10;14.43;;;24.80;60.50;;;;;;4950529;28;87966;-25
2021/06/27 07:06:12;;;;;;;29.00;14.60;;;24.80;60.50;;;;;;4950963;28;88165;-25
2021/06/27 07:08:37;;;;;;;45.55;16.08;;;24.80;60.70;;;;;;4948569;28;88310;-25
2021/06/27 07:11:03;;;;;;;32.00;14.30;;;24.80;60.70;;;;;;4944915;28;89108;-23
2021/06/27 07:13:29;;;;;;;31.92;14.38;;;24.80;60.70;;;;;;4947993;28;88294;-25
2021/06/27 07:15:54;;;;;;;27.08;13.55;;;24.80;60.70;;;;;;4949508;28;87830;-25
2021/06/27 07:18:23;;;;;;;32.78;14.73;;;24.80;60.90;;;;;;4948355;28;88078;-24
2021/06/27 07:20:49;;;;;;;30.20;13.70;;;24.80;60.80;;;;;;4949640;28;87655;-24
2021/06/27 07:23:15;;;;;;;29.25;14.57;;;24.80;60.90;;;;;;4949801;28;88591;-29
2021/06/27 07:25:41;;;;;;;30.33;14.35;;;24.80;62.10;;;;;;4912992;28;88139;-25
2021/06/27 07:28:06;;;;;;;30.23;15.00;;;24.80;61.10;;;;;;4949997;28;87427;-30
2021/06/27 07:30:32;;;;;;;31.35;13.93;;;24.80;61.10;;;;;;4949263;28;87947;-25
2021/06/27 07:32:58;;;;;;;27.10;13.55;;;24.80;61.10;;;;;;4949898;28;88007;-25
2021/06/27 07:35:24;;;;;;;28.20;13.05;;;;;;;;;;4951180;28;88768;-26
2021/06/27 07:37:49;;;;;;;27.98;12.90;;;25.10;62.10;;;;;;4951769;28;88227;-25
2021/06/27 07:40:15;;;;;;;30.10;13.40;;;24.80;61.40;;;;;;4951636;28;89418;-24
2021/06/27 07:42:41;;;;;;;29.80;14.63;;;24.80;61.50;;;;;;4952774;28;87881;-24
2021/06/27 07:45:08;;;;;;;24.73;13.38;;;24.80;61.50;;;;;;4952903;28;87506;-32
2021/06/27 07:47:34;;;;;;;31.08;14.27;;;24.80;61.60;;;;;;4952302;28;87573;-28
2021/06/27 07:50:00;;;;;;;23.58;13.80;;;;;;;;;;4953011;28;88240;-28
2021/06/27 07:52:26;;;;;;;21.75;13.30;;;;;;;;;;4953620;28;87681;-26
2021/06/27 07:54:51;;;;;;;24.10;13.60;;;24.70;61.90;;;;;;4951780;28;88010;-24
2021/06/27 07:57:17;;;;;;;25.35;13.77;;;24.70;62.40;;;;;;4951904;28;87746;-24
2021/06/27 07:59:43;;;;;;;19.90;12.35;;;24.70;62.60;;;;;;4951513;28;88948;-24
2021/06/27 08:02:08;;;;;;;21.10;12.68;;;24.70;62.70;;;;;;4950895;28;88313;-24
2021/06/27 08:04:34;;;;;;;26.33;13.00;;;24.70;62.60;;;;;;4952173;28;87120;-30
2021/06/27 08:07:00;;;;;;;22.10;13.00;;;24.70;62.60;;;;;;4950728;28;87580;-31
2021/06/27 08:09:25;;;;;;;26.27;12.75;;;24.70;62.50;;;;;;4951349;28;89615;-29
2021/06/27 08:11:54;;;;;;;22.85;12.88;;;24.80;62.60;;;;;;4951652;28;89123;-29
2021/06/27 08:14:20;;;;;;;19.88;11.95;;;24.80;62.80;;;;;;4952694;28;88566;-29
2021/06/27 08:16:45;;;;;;;25.95;13.52;;;24.80;62.90;;;;;;4953695;28;86539;-28
2021/06/27 08:19:11;;;;;;;15.93;11.38;;;24.80;63.00;;;;;;4952299;28;89474;-29
2021/06/27 08:21:37;;;;;;;16.30;10.43;;;24.80;62.60;;;;;;4951052;28;88001;-29
2021/06/27 08:24:03;;;;;;;15.15;8.48;;;24.80;63.10;;;;;;4949007;28;89461;-28
2021/06/27 08:26:29;;;;;;;11.18;8.60;;;24.80;62.80;;;;;;4951936;28;87756;-28
2021/06/27 08:28:54;;;;;;;12.48;8.82;;;24.80;62.90;;;;;;4952504;28;87618;-24
2021/06/27 08:31:21;;;;;;;12.02;8.63;;;24.80;61.80;;;;;;4952338;28;87828;-24
2021/06/27 08:33:47;;;;;;;9.82;7.60;;;24.80;61.40;;;;;;4952298;28;88342;-30
2021/06/27 08:36:13;;;;;;;6.82;6.18;;;24.70;61.30;;;;;;4952265;28;87267;-24
2021/06/27 08:38:39;;;;;;;9.75;6.63;;;24.70;61.00;;;;;;4951968;28;87721;-25
2021/06/27 08:41:04;;;;;;;7.00;6.30;;;24.70;60.60;;;;;;4952180;28;88407;-28
2021/06/27 08:43:32;;;;;;;9.15;6.53;;;24.70;60.90;;;;;;4951609;28;87153;-25
2021/06/27 08:46:04;;;;;;;6.97;6.03;;;24.80;61.10;;;;;;4951971;28;87891;-27
2021/06/27 08:48:34;;;;;;;7.23;6.53;;;24.70;61.50;;;;;;4949712;28;92113;-30
2021/06/27 08:50:59;;;;;;;7.22;6.53;;;24.70;61.10;;;;;;4951773;28;88798;-24
2021/06/27 08:53:25;;;;;;;7.30;6.50;;;24.80;61.30;;;;;;4951968;28;87192;-24
2021/06/27 08:56:11;;;;;;;7.50;6.60;;;24.80;61.50;;;;;;4952269;28;88396;-26
2021/06/27 08:58:36;;;;;;;119.47;41.85;;;24.80;61.80;;;;;;4951719;28;88841;-22
2021/06/27 09:01:17;;;;;;;75.70;29.35;;;24.80;61.80;;;;;;4951469;28;88366;-23
2021/06/27 09:03:45;;;;;;;54.20;23.77;;;24.80;62.30;;;;;;4950938;28;88646;-31
2021/06/27 09:06:11;;;;;;;56.15;22.52;;;24.90;62.40;;;;;;4952261;28;86487;-22
2021/06/27 09:08:37;;;;;;;44.67;20.30;;;24.90;62.90;;;;;;4949771;28;90504;-24
2021/06/27 09:11:13;;;;;;;44.45;19.77;;;24.90;62.90;;;;;;4951267;28;88256;-24
2021/06/27 09:13:42;;;;;;;38.53;17.75;;;24.90;62.80;;;;;;4951041;28;88425;-25
2021/06/27 09:16:28;;;;;;;40.80;16.30;;;24.90;62.70;;;;;;4950565;28;88596;-25
2021/06/27 09:19:00;;;;;;;36.80;17.60;;;24.90;62.60;;;;;;4950516;28;88933;-27
2021/06/27 09:21:26;;;;;;;36.33;16.25;;;24.90;62.70;;;;;;4951817;28;87862;-23
2021/06/27 09:23:52;;;;;;;31.10;14.70;;;24.90;62.80;;;;;;4949738;28;87322;-28
2021/06/27 09:26:32;;;;;;;28.63;14.13;;;24.90;62.90;;;;;;4951133;28;87923;-23
2021/06/27 09:28:59;;;;;;;34.35;14.60;;;24.90;62.90;;;;;;4951156;28;87840;-23
2021/06/27 09:31:35;;;;;;;27.95;14.40;;;24.90;62.90;;;;;;4952340;28;88065;-26
2021/06/27 09:34:06;;;;;;;27.77;12.73;;;24.90;63.30;;;;;;4951693;28;87471;-23
2021/06/27 09:36:32;;;;;;;30.42;12.70;;;24.90;63.90;;;;;;4952180;28;87771;-30
2021/06/27 09:39:09;;;;;;;31.88;13.40;;;24.90;64.20;;;;;;4950578;28;89046;-22
2021/06/27 09:41:36;;;;;;;26.85;13.50;;;24.90;64.40;;;;;;4951395;28;88918;-26
2021/06/27 09:44:04;;;;;;;30.08;13.20;;;24.90;65.30;;;;;;4949833;28;88004;-28
2021/06/27 09:46:40;;;;;;;30.30;13.35;;;24.90;65.80;;;;;;4951517;28;88029;-32
2021/06/27 09:49:10;;;;;;;25.73;13.02;;;25.00;66.20;;;;;;4950905;28;88157;-23
2021/06/27 09:51:38;;;;;;;28.70;11.88;;;25.00;66.60;;;;;;4951211;28;88074;-23
2021/06/27 09:54:13;;;;;;;32.40;13.13;;;24.90;66.50;;;;;;4951233;28;87713;-25
2021/06/27 09:56:39;;;;;;;24.30;13.20;;;25.00;66.60;;;;;;4949731;28;87504;-25
2021/06/27 09:59:07;;;;;;;25.05;13.88;;;24.90;66.70;;;;;;4950650;28;88630;-27
2021/06/27 10:01:37;;;;;;;26.50;13.57;;;25.00;66.80;;;;;;4949658;28;88335;-28
2021/06/27 10:04:07;;;;;;;22.63;15.18;;;24.90;66.70;;;;;;4949800;28;89155;-30
2021/06/27 10:06:49;;;;;;;25.48;14.65;;;25.00;66.70;;;;;;4950161;28;87344;-24
2021/06/27 10:09:21;;;;;;;20.52;13.43;;;25.00;66.50;;;;;;4950894;28;88142;-22
2021/06/27 10:12:05;;;;;;;22.58;14.32;;;24.90;66.40;;;;;;4951212;28;88029;-28
2021/06/27 10:14:55;;;;;;;20.60;13.20;;;25.00;66.40;;;;;;4951405;28;87847;-23
2021/06/27 10:17:23;;;;;;;19.35;13.40;;;25.00;66.40;;;;;;4950614;28;87695;-22
2021/06/27 10:19:50;;;;;;;17.45;12.32;;;24.90;66.40;;;;;;4950612;28;88137;-24
2021/06/27 10:22:17;;;;;;;21.83;12.77;;;24.90;66.50;;;;;;4950126;28;87981;-28
2021/06/27 10:24:43;;;;;;;20.17;12.43;;;24.90;66.50;;;;;;4950728;28;87860;-27
2021/06/27 10:27:09;;;;;;;20.73;13.18;;;25.00;66.50;;;;;;4950106;28;87985;-23
2021/06/27 10:29:48;;;;;;;19.63;12.30;;;24.90;66.40;;;;;;4950506;28;89600;-31
2021/06/27 10:32:15;;;;;;;22.35;11.90;;;24.90;66.40;;;;;;4950696;28;88229;-24
2021/06/27 10:34:41;;;;;;;20.58;11.55;;;24.90;66.30;;;;;;4951196;28;87547;-26
2021/06/27 10:37:17;;;;;;;17.10;11.18;;;24.90;66.10;;;;;;4950268;28;88142;-25
2021/06/27 10:39:55;;;;;;;20.48;11.68;;;25.30;75.60;;;;;;4950621;28;87925;-25
2021/06/27 10:42:49;;;;;;;17.38;10.52;;;24.90;65.80;;;;;;4950608;28;88786;-25
2021/06/27 10:45:20;;;;;;;18.42;11.55;;;25.00;65.70;;;;;;4949990;28;87408;-24
2021/06/27 10:47:49;;;;;;;14.45;11.40;;;25.00;65.60;;;;;;4950064;28;87315;-22
2021/06/27 10:50:17;;;;;;;16.00;11.07;;;25.00;65.80;;;;;;4948980;28;91532;-25
2021/06/27 10:53:03;;;;;;;18.98;11.43;;;24.90;65.90;;;;;;4949891;28;89941;-29
2021/06/27 10:55:30;;;;;;;14.38;9.88;;;25.00;65.90;;;;;;4949406;28;88977;-33
2021/06/27 10:58:06;;;;;;;17.65;10.82;;;25.00;66.00;;;;;;4948198;28;91786;-28
2021/06/27 11:01:09;;;;;;;15.93;10.63;;;25.00;66.00;;;;;;4964567;28;90698;-25
2021/06/27 11:03:37;;;;;;;17.20;9.90;;;25.00;66.00;;;;;;4907425;28;87545;-26
2021/06/27 11:06:26;;;;;;;15.15;10.55;;;25.00;65.90;;;;;;4941323;28;87168;-25
2021/06/27 11:09:12;;;;;;;14.55;9.43;;;25.00;65.80;;;;;;4943213;28;88121;-24
2021/06/27 11:11:54;;;;;;;17.40;10.52;;;25.00;65.80;;;;;;4953292;28;88785;-23
2021/06/27 11:14:21;;;;;;;16.55;10.35;;;25.00;65.70;;;;;;4952554;28;89569;-26
2021/06/27 11:17:00;;;;;;;13.85;9.77;;;25.00;65.70;;;;;;4952885;28;88036;-30
2021/06/27 11:19:28;;;;;;;13.18;10.10;;;25.00;65.70;;;;;;4953762;28;87382;-29
2021/06/27 11:22:13;;;;;;;19.48;10.95;;;25.00;65.70;;;;;;4951068;28;92359;-22
2021/06/27 11:24:38;;;;;;;16.67;9.93;;;25.00;65.60;;;;;;4953449;28;88883;-25
2021/06/27 11:27:04;;;;;;;14.38;9.85;;;25.00;65.60;;;;;;4954828;28;87243;-25
2021/06/27 11:29:30;;;;;;;13.63;10.05;;;25.00;65.70;;;;;;4954126;28;88010;-22
2021/06/27 11:32:15;;;;;;;15.02;9.60;;;25.00;65.60;;;;;;4952442;28;88254;-32
2021/06/27 11:34:52;;;;;;;12.15;9.82;;;25.00;65.60;;;;;;4957993;28;87256;-22
2021/06/27 11:37:18;;;;;;;13.68;9.57;;;25.00;65.50;;;;;;4954399;28;87967;-22
2021/06/27 11:39:54;;;;;;;14.55;9.98;;;25.00;65.50;;;;;;4956656;28;87203;-22
2021/06/27 11:42:22;;;;;;;13.38;10.10;;;24.90;65.50;;;;;;4954606;28;88183;-22
2021/06/27 11:45:13;;;;;;;14.52;9.57;;;25.00;65.50;;;;;;4954977;28;87520;-24
2021/06/27 11:47:51;;;;;;;13.23;9.90;;;25.00;65.50;;;;;;4942988;28;89391;-23
2021/06/27 11:50:28;;;;;;;11.98;10.00;;;24.90;65.50;;;;;;4954481;28;87858;-30
2021/06/27 11:52:59;;;;;;;12.52;9.65;;;25.00;65.50;;;;;;4951720;28;88205;-24
2021/06/27 11:55:29;;;;;;;12.82;10.05;;;24.90;65.40;;;;;;4952736;28;89145;-22
2021/06/27 11:57:55;;;;;;;13.23;9.77;;;24.90;65.40;;;;;;4953809;28;87991;-23
2021/06/27 12:00:32;;;;;;;12.55;9.82;;;25.00;65.50;;;;;;4954492;28;88003;-30
2021/06/27 12:03:06;;;;;;;11.98;9.95;;;24.90;65.30;;;;;;4953852;28;88236;-26
2021/06/27 12:05:36;;;;;;;12.60;10.00;;;24.90;65.30;;;;;;4954370;28;86975;-23
2021/06/27 12:08:11;;;;;;;13.05;9.63;;;24.90;65.30;;;;;;4951566;28;88176;-22
2021/06/27 12:10:39;;;;;;;12.38;9.35;;;24.90;65.30;;;;;;4953892;28;88102;-22
2021/06/27 12:13:07;;;;;;;10.73;9.45;;;24.90;65.20;;;;;;4953565;28;88631;-26
2021/06/27 12:15:41;;;;;;;10.70;9.60;;;24.90;65.20;;;;;;4952774;28;88380;-23
2021/06/27 12:18:15;;;;;;;14.07;9.88;;;24.90;65.20;;;;;;4952474;28;87985;-29
2021/06/27 12:20:46;;;;;;;11.35;9.00;;;24.90;65.10;;;;;;4952725;28;87750;-31
2021/06/27 12:23:17;;;;;;;12.32;9.07;;;24.90;65.10;;;;;;4953260;28;88159;-32
2021/06/27 12:25:51;;;;;;;11.80;9.00;;;24.90;65.10;;;;;;4952742;28;87098;-33
2021/06/27 12:28:27;;;;;;;12.13;10.43;;;24.90;65.10;;;;;;4952717;28;87715;-24
2021/06/27 12:30:54;;;;;;;12.73;9.90;;;24.90;65.10;;;;;;4953291;28;87014;-23
2021/06/27 12:33:22;;;;;;;15.13;10.00;;;24.90;65.10;;;;;;4952291;28;90977;-29
2021/06/27 12:36:00;;;;;;;13.27;9.98;;;24.90;65.10;;;;;;4952636;28;87902;-26
2021/06/27 12:38:29;;;;;;;12.32;9.48;;;24.90;65.00;;;;;;4952032;28;88807;-22